sensor_id;sensor_type;location;lat;lon;timestamp;pressure;altitude;pressure_sealevel;temperature;humidity
21900;BME280;11114;50.658;12.704;2022-11-04T00:02:07;94825.72;;;12.46;67.57
21900;BME280;11114;50.658;12.704;2022-11-04T00:04:34;94828.13;;;12.47;67.54
21900;BME280;11114;50.658;12.704;2022-11-04T00:07:01;94832.97;;;12.50;67.26
21900;BME280;11114;50.658;12.704;2022-11-04T00:09:48;94829.16;;;12.53;66.99
21900;BME280;11114;50.658;12.704;2022-11-04T00:12:15;94829.53;;;12.56;66.70
21900;BME280;11114;50.658;12.704;2022-11-04T00:14:51;94822.31;;;12.58;66.66
21900;BME280;11114;50.658;12.704;2022-11-04T00:17:17;94830.38;;;12.63;66.46
21900;BME280;11114;50.658;12.704;2022-11-04T00:19:49;94828.34;;;12.65;66.27
21900;BME280;11114;50.658;12.704;2022-11-04T00:22:36;94834.56;;;12.64;66.12
21900;BME280;11114;50.658;12.704;2022-11-04T00:25:22;94834.19;;;12.67;66.17
21900;BME280;11114;50.658;12.704;2022-11-04T00:28:17;94825.50;;;12.73;66.01
21900;BME280;11114;50.658;12.704;2022-11-04T00:31:05;94831.34;;;12.75;65.93
21900;BME280;11114;50.658;12.704;2022-11-04T00:33:52;94823.50;;;12.75;66.04
21900;BME280;11114;50.658;12.704;2022-11-04T00:36:21;94828.34;;;12.78;66.14
21900;BME280;11114;50.658;12.704;2022-11-04T00:38:48;94822.28;;;12.78;66.07
21900;BME280;11114;50.658;12.704;2022-11-04T00:41:15;94825.91;;;12.77;66.11
21900;BME280;11114;50.658;12.704;2022-11-04T00:43:53;94835.78;;;12.75;66.45
21900;BME280;11114;50.658;12.704;2022-11-04T00:46:21;94846.88;;;12.70;66.56
21900;BME280;11114;50.658;12.704;2022-11-04T00:48:48;94855.13;;;12.67;66.81
21900;BME280;11114;50.658;12.704;2022-11-04T00:51:15;94855.94;;;12.68;67.00
21900;BME280;11114;50.658;12.704;2022-11-04T00:53:41;94861.78;;;12.63;67.47
21900;BME280;11114;50.658;12.704;2022-11-04T00:56:08;94854.94;;;12.62;68.75
21900;BME280;11114;50.658;12.704;2022-11-04T00:58:35;94821.91;;;12.48;69.83
21900;BME280;11114;50.658;12.704;2022-11-04T01:01:13;94835.00;;;12.35;70.81
21900;BME280;11114;50.658;12.704;2022-11-04T01:03:47;94819.69;;;12.26;72.64
21900;BME280;11114;50.658;12.704;2022-11-04T01:06:14;94817.06;;;12.20;71.43
21900;BME280;11114;50.658;12.704;2022-11-04T01:08:41;94799.97;;;12.11;71.73
21900;BME280;11114;50.658;12.704;2022-11-04T01:11:09;94798.75;;;12.07;72.34
21900;BME280;11114;50.658;12.704;2022-11-04T01:13:37;94812.84;;;12.12;71.86
21900;BME280;11114;50.658;12.704;2022-11-04T01:16:09;94845.03;;;12.19;71.77
21900;BME280;11114;50.658;12.704;2022-11-04T01:18:36;94897.97;;;12.21;72.26
21900;BME280;11114;50.658;12.704;2022-11-04T01:21:05;94906.78;;;12.14;72.03
21900;BME280;11114;50.658;12.704;2022-11-04T01:23:33;94912.00;;;12.07;72.05
21900;BME280;11114;50.658;12.704;2022-11-04T01:26:03;94896.91;;;12.03;72.34
21900;BME280;11114;50.658;12.704;2022-11-04T01:28:30;94894.31;;;12.09;71.95
21900;BME280;11114;50.658;12.704;2022-11-04T01:30:57;94894.94;;;12.18;71.56
21900;BME280;11114;50.658;12.704;2022-11-04T01:33:24;94901.78;;;12.19;71.35
21900;BME280;11114;50.658;12.704;2022-11-04T01:35:51;94888.88;;;12.17;71.36
21900;BME280;11114;50.658;12.704;2022-11-04T01:38:18;94904.38;;;12.12;71.15
21900;BME280;11114;50.658;12.704;2022-11-04T01:40:44;94916.22;;;12.08;71.55
21900;BME280;11114;50.658;12.704;2022-11-04T01:43:19;94912.44;;;12.11;71.63
21900;BME280;11114;50.658;12.704;2022-11-04T01:45:53;94914.03;;;12.12;71.61
21900;BME280;11114;50.658;12.704;2022-11-04T01:48:29;94921.06;;;12.05;71.45
21900;BME280;11114;50.658;12.704;2022-11-04T01:50:58;94932.28;;;11.92;71.72
21900;BME280;11114;50.658;12.704;2022-11-04T01:53:32;94933.69;;;11.88;71.83
21900;BME280;11114;50.658;12.704;2022-11-04T01:56:03;94934.25;;;11.84;72.12
21900;BME280;11114;50.658;12.704;2022-11-04T01:58:48;94938.88;;;11.82;72.28
21900;BME280;11114;50.658;12.704;2022-11-04T02:01:16;94926.19;;;11.79;72.19
21900;BME280;11114;50.658;12.704;2022-11-04T02:03:58;94923.19;;;11.82;72.53
21900;BME280;11114;50.658;12.704;2022-11-04T02:06:47;94917.56;;;11.85;72.27
21900;BME280;11114;50.658;12.704;2022-11-04T02:09:16;94914.56;;;11.88;72.27
21900;BME280;11114;50.658;12.704;2022-11-04T02:11:43;94914.16;;;11.91;72.30
21900;BME280;11114;50.658;12.704;2022-11-04T02:14:29;94919.44;;;11.97;72.35
21900;BME280;11114;50.658;12.704;2022-11-04T02:30:18;94936.53;;;12.00;72.44
21900;BME280;11114;50.658;12.704;2022-11-04T02:40:55;94928.66;;;11.93;72.74
21900;BME280;11114;50.658;12.704;2022-11-04T02:46:30;94931.25;;;11.87;72.91
21900;BME280;11114;50.658;12.704;2022-11-04T02:49:01;94924.22;;;11.87;73.76
21900;BME280;11114;50.658;12.704;2022-11-04T02:51:40;94925.03;;;11.94;72.94
21900;BME280;11114;50.658;12.704;2022-11-04T02:54:18;94925.66;;;12.03;72.74
21900;BME280;11114;50.658;12.704;2022-11-04T02:56:49;94927.50;;;12.09;72.34
21900;BME280;11114;50.658;12.704;2022-11-04T02:59:22;94928.53;;;12.14;72.54
21900;BME280;11114;50.658;12.704;2022-11-04T03:01:54;94929.94;;;12.17;72.43
21900;BME280;11114;50.658;12.704;2022-11-04T03:04:30;94924.72;;;12.17;72.42
21900;BME280;11114;50.658;12.704;2022-11-04T03:06:59;94929.16;;;12.23;72.20
21900;BME280;11114;50.658;12.704;2022-11-04T03:09:28;94921.09;;;12.24;72.26
21900;BME280;11114;50.658;12.704;2022-11-04T03:12:03;94924.16;;;12.28;72.18
21900;BME280;11114;50.658;12.704;2022-11-04T03:14:39;94922.72;;;12.31;72.23
21900;BME280;11114;50.658;12.704;2022-11-04T03:17:25;94921.72;;;12.32;72.21
21900;BME280;11114;50.658;12.704;2022-11-04T03:19:56;94911.66;;;12.36;71.94
21900;BME280;11114;50.658;12.704;2022-11-04T03:22:27;94916.28;;;12.34;71.96
21900;BME280;11114;50.658;12.704;2022-11-04T03:24:55;94918.91;;;12.28;71.92
21900;BME280;11114;50.658;12.704;2022-11-04T03:27:48;94923.13;;;12.28;72.39
21900;BME280;11114;50.658;12.704;2022-11-04T03:30:21;94922.13;;;12.29;72.10
21900;BME280;11114;50.658;12.704;2022-11-04T03:35:24;94925.56;;;12.36;72.03
21900;BME280;11114;50.658;12.704;2022-11-04T03:37:53;94936.41;;;12.27;72.26
21900;BME280;11114;50.658;12.704;2022-11-04T03:40:20;94941.84;;;12.26;72.41
21900;BME280;11114;50.658;12.704;2022-11-04T03:43:04;94945.09;;;12.28;72.52
21900;BME280;11114;50.658;12.704;2022-11-04T03:45:33;94942.47;;;12.28;72.22
21900;BME280;11114;50.658;12.704;2022-11-04T03:48:00;94956.75;;;12.31;72.21
21900;BME280;11114;50.658;12.704;2022-11-04T03:50:32;94957.72;;;12.24;72.47
21900;BME280;11114;50.658;12.704;2022-11-04T03:53:01;94962.75;;;12.19;72.71
21900;BME280;11114;50.658;12.704;2022-11-04T03:55:53;94979.03;;;12.15;73.47
21900;BME280;11114;50.658;12.704;2022-11-04T04:01:36;94992.84;;;11.96;74.90
21900;BME280;11114;50.658;12.704;2022-11-04T04:04:25;94989.00;;;11.92;75.39
21900;BME280;11114;50.658;12.704;2022-11-04T04:06:58;94996.22;;;11.90;75.35
21900;BME280;11114;50.658;12.704;2022-11-04T04:12:06;94998.19;;;11.81;76.21
21900;BME280;11114;50.658;12.704;2022-11-04T04:14:43;94998.19;;;11.75;77.07
21900;BME280;11114;50.658;12.704;2022-11-04T04:19:53;95004.94;;;11.63;78.02
21900;BME280;11114;50.658;12.704;2022-11-04T04:22:24;95001.28;;;11.57;78.41
21900;BME280;11114;50.658;12.704;2022-11-04T04:24:55;95008.50;;;11.55;78.50
21900;BME280;11114;50.658;12.704;2022-11-04T04:27:41;95004.47;;;11.53;79.06
21900;BME280;11114;50.658;12.704;2022-11-04T04:30:12;95004.81;;;11.50;79.56
21900;BME280;11114;50.658;12.704;2022-11-04T04:32:43;95013.66;;;11.49;79.49
21900;BME280;11114;50.658;12.704;2022-11-04T04:35:10;95012.06;;;11.48;79.60
21900;BME280;11114;50.658;12.704;2022-11-04T04:37:59;95015.25;;;11.50;79.37
21900;BME280;11114;50.658;12.704;2022-11-04T04:40:55;95010.03;;;11.50;79.54
21900;BME280;11114;50.658;12.704;2022-11-04T04:43:44;95016.44;;;11.47;79.82
21900;BME280;11114;50.658;12.704;2022-11-04T04:46:30;95017.44;;;11.46;79.72
21900;BME280;11114;50.658;12.704;2022-11-04T04:49:08;95018.91;;;11.49;80.43
21900;BME280;11114;50.658;12.704;2022-11-04T04:51:45;95022.50;;;11.48;80.15
21900;BME280;11114;50.658;12.704;2022-11-04T04:54:13;95022.88;;;11.45;80.16
21900;BME280;11114;50.658;12.704;2022-11-04T04:56:40;95024.22;;;11.41;80.19
21900;BME280;11114;50.658;12.704;2022-11-04T04:59:07;95021.59;;;11.35;80.62
21900;BME280;11114;50.658;12.704;2022-11-04T05:01:35;95021.75;;;11.33;80.62
21900;BME280;11114;50.658;12.704;2022-11-04T05:04:02;95019.91;;;11.27;81.22
21900;BME280;11114;50.658;12.704;2022-11-04T05:06:30;95016.31;;;11.28;81.08
21900;BME280;11114;50.658;12.704;2022-11-04T05:08:58;95010.72;;;11.31;80.93
21900;BME280;11114;50.658;12.704;2022-11-04T05:11:25;95007.13;;;11.39;80.83
21900;BME280;11114;50.658;12.704;2022-11-04T05:13:53;95004.34;;;11.40;80.70
21900;BME280;11114;50.658;12.704;2022-11-04T05:16:20;95005.34;;;11.39;80.81
21900;BME280;11114;50.658;12.704;2022-11-04T05:18:47;95007.97;;;11.39;80.92
21900;BME280;11114;50.658;12.704;2022-11-04T05:21:15;95007.19;;;11.45;80.63
21900;BME280;11114;50.658;12.704;2022-11-04T05:23:42;95003.78;;;11.45;80.48
21900;BME280;11114;50.658;12.704;2022-11-04T05:26:09;95006.56;;;11.43;80.66
21900;BME280;11114;50.658;12.704;2022-11-04T05:28:35;95006.56;;;11.43;80.58
21900;BME280;11114;50.658;12.704;2022-11-04T05:31:04;95010.59;;;11.45;80.41
21900;BME280;11114;50.658;12.704;2022-11-04T05:33:31;95010.00;;;11.44;80.44
21900;BME280;11114;50.658;12.704;2022-11-04T05:36:06;95010.19;;;11.42;80.57
21900;BME280;11114;50.658;12.704;2022-11-04T05:38:33;95007.41;;;11.44;80.29
21900;BME280;11114;50.658;12.704;2022-11-04T05:41:00;95005.56;;;11.44;80.17
21900;BME280;11114;50.658;12.704;2022-11-04T05:43:28;95006.00;;;11.47;80.27
21900;BME280;11114;50.658;12.704;2022-11-04T05:45:57;95009.22;;;11.49;80.41
21900;BME280;11114;50.658;12.704;2022-11-04T05:48:24;95007.41;;;11.50;80.19
21900;BME280;11114;50.658;12.704;2022-11-04T05:50:51;94997.78;;;11.50;80.21
21900;BME280;11114;50.658;12.704;2022-11-04T05:53:18;94991.72;;;11.50;80.14
21900;BME280;11114;50.658;12.704;2022-11-04T05:55:45;94999.97;;;11.47;80.33
21900;BME280;11114;50.658;12.704;2022-11-04T05:58:12;94997.16;;;11.48;80.25
21900;BME280;11114;50.658;12.704;2022-11-04T06:00:39;94992.75;;;11.49;79.85
21900;BME280;11114;50.658;12.704;2022-11-04T06:03:06;94995.97;;;11.51;79.94
21900;BME280;11114;50.658;12.704;2022-11-04T06:05:39;94988.00;;;11.52;79.90
21900;BME280;11114;50.658;12.704;2022-11-04T06:08:05;94995.81;;;11.52;79.80
21900;BME280;11114;50.658;12.704;2022-11-04T06:10:33;94995.97;;;11.51;79.65
21900;BME280;11114;50.658;12.704;2022-11-04T06:13:00;94993.75;;;11.48;79.59
21900;BME280;11114;50.658;12.704;2022-11-04T06:15:27;94992.56;;;11.50;79.57
21900;BME280;11114;50.658;12.704;2022-11-04T06:17:53;94986.34;;;11.51;79.64
21900;BME280;11114;50.658;12.704;2022-11-04T06:20:20;94992.81;;;11.55;79.39
21900;BME280;11114;50.658;12.704;2022-11-04T06:22:47;94981.97;;;11.58;79.35
21900;BME280;11114;50.658;12.704;2022-11-04T06:25:14;94986.22;;;11.59;79.22
21900;BME280;11114;50.658;12.704;2022-11-04T06:27:41;94993.22;;;11.59;78.98
21900;BME280;11114;50.658;12.704;2022-11-04T06:30:08;94991.81;;;11.56;78.96
21900;BME280;11114;50.658;12.704;2022-11-04T06:32:35;94989.13;;;11.50;78.96
21900;BME280;11114;50.658;12.704;2022-11-04T06:35:02;94990.72;;;11.45;79.10
21900;BME280;11114;50.658;12.704;2022-11-04T06:37:28;95000.34;;;11.44;79.30
21900;BME280;11114;50.658;12.704;2022-11-04T06:39:55;95006.34;;;11.38;79.33
21900;BME280;11114;50.658;12.704;2022-11-04T06:42:22;95005.72;;;11.36;79.51
21900;BME280;11114;50.658;12.704;2022-11-04T06:44:51;95016.16;;;11.36;79.57
21900;BME280;11114;50.658;12.704;2022-11-04T06:47:18;95022.66;;;11.40;79.50
21900;BME280;11114;50.658;12.704;2022-11-04T06:49:50;95022.81;;;11.39;79.48
21900;BME280;11114;50.658;12.704;2022-11-04T06:52:17;95024.44;;;11.40;79.40
21900;BME280;11114;50.658;12.704;2022-11-04T06:54:43;95021.63;;;11.41;79.46
21900;BME280;11114;50.658;12.704;2022-11-04T06:57:10;95023.63;;;11.39;79.46
21900;BME280;11114;50.658;12.704;2022-11-04T06:59:38;95024.84;;;11.43;79.51
21900;BME280;11114;50.658;12.704;2022-11-04T07:02:05;95030.50;;;11.46;79.54
21900;BME280;11114;50.658;12.704;2022-11-04T07:04:32;95021.75;;;11.54;79.43
21900;BME280;11114;50.658;12.704;2022-11-04T07:06:59;95013.34;;;11.58;79.39
21900;BME280;11114;50.658;12.704;2022-11-04T07:09:26;95012.56;;;11.58;79.02
21900;BME280;11114;50.658;12.704;2022-11-04T07:11:52;95012.56;;;11.58;79.01
21900;BME280;11114;50.658;12.704;2022-11-04T07:14:19;95029.81;;;11.59;78.91
21900;BME280;11114;50.658;12.704;2022-11-04T07:16:49;95042.28;;;11.57;78.95
21900;BME280;11114;50.658;12.704;2022-11-04T07:19:16;95046.31;;;11.59;79.08
21900;BME280;11114;50.658;12.704;2022-11-04T07:21:43;95039.09;;;11.61;78.82
21900;BME280;11114;50.658;12.704;2022-11-04T07:24:10;95039.97;;;11.68;78.66
21900;BME280;11114;50.658;12.704;2022-11-04T07:26:37;95039.56;;;11.71;78.67
21900;BME280;11114;50.658;12.704;2022-11-04T07:29:04;95045.22;;;11.75;78.47
21900;BME280;11114;50.658;12.704;2022-11-04T07:31:32;95046.22;;;11.74;78.37
21900;BME280;11114;50.658;12.704;2022-11-04T07:33:59;95053.66;;;11.77;78.41
21900;BME280;11114;50.658;12.704;2022-11-04T07:36:26;95057.72;;;11.79;78.43
21900;BME280;11114;50.658;12.704;2022-11-04T07:38:53;95044.81;;;11.78;78.27
21900;BME280;11114;50.658;12.704;2022-11-04T07:41:20;95054.06;;;11.74;78.32
21900;BME280;11114;50.658;12.704;2022-11-04T07:43:51;95044.19;;;11.69;78.57
21900;BME280;11114;50.658;12.704;2022-11-04T07:46:18;95043.50;;;11.61;78.48
21900;BME280;11114;50.658;12.704;2022-11-04T07:48:46;95043.66;;;11.53;78.66
21900;BME280;11114;50.658;12.704;2022-11-04T07:51:15;95034.75;;;11.47;79.04
21900;BME280;11114;50.658;12.704;2022-11-04T07:53:43;95022.44;;;11.42;79.17
21900;BME280;11114;50.658;12.704;2022-11-04T07:56:10;95020.03;;;11.40;79.63
21900;BME280;11114;50.658;12.704;2022-11-04T07:58:38;95031.28;;;11.41;79.83
21900;BME280;11114;50.658;12.704;2022-11-04T08:01:09;95045.97;;;11.42;79.90
21900;BME280;11114;50.658;12.704;2022-11-04T08:03:37;95048.22;;;11.45;79.83
21900;BME280;11114;50.658;12.704;2022-11-04T08:06:06;95055.84;;;11.46;79.89
21900;BME280;11114;50.658;12.704;2022-11-04T08:08:33;95045.13;;;11.41;80.22
21900;BME280;11114;50.658;12.704;2022-11-04T08:11:03;95049.16;;;11.37;80.43
21900;BME280;11114;50.658;12.704;2022-11-04T08:13:33;95039.69;;;11.36;80.64
21900;BME280;11114;50.658;12.704;2022-11-04T08:16:08;95044.72;;;11.38;80.71
21900;BME280;11114;50.658;12.704;2022-11-04T08:18:36;95038.06;;;11.35;80.69
21900;BME280;11114;50.658;12.704;2022-11-04T08:21:03;95031.22;;;11.34;80.90
21900;BME280;11114;50.658;12.704;2022-11-04T08:23:31;95016.16;;;11.36;80.87
21900;BME280;11114;50.658;12.704;2022-11-04T08:25:58;95017.28;;;11.48;81.08
21900;BME280;11114;50.658;12.704;2022-11-04T08:28:25;95014.34;;;11.57;80.59
21900;BME280;11114;50.658;12.704;2022-11-04T08:31:04;95015.38;;;11.63;80.50
21900;BME280;11114;50.658;12.704;2022-11-04T08:33:32;95012.97;;;11.61;80.43
21900;BME280;11114;50.658;12.704;2022-11-04T08:36:22;95014.75;;;11.61;80.58
21900;BME280;11114;50.658;12.704;2022-11-04T08:38:47;95008.75;;;11.60;80.54
21900;BME280;11114;50.658;12.704;2022-11-04T08:41:17;95000.06;;;11.60;80.55
21900;BME280;11114;50.658;12.704;2022-11-04T08:43:46;95006.31;;;11.59;80.67
21900;BME280;11114;50.658;12.704;2022-11-04T08:46:13;94998.09;;;11.62;80.77
21900;BME280;11114;50.658;12.704;2022-11-04T08:48:41;94998.72;;;11.64;80.73
21900;BME280;11114;50.658;12.704;2022-11-04T08:51:14;95020.19;;;11.59;80.91
21900;BME280;11114;50.658;12.704;2022-11-04T08:53:42;95027.81;;;11.61;80.68
21900;BME280;11114;50.658;12.704;2022-11-04T08:56:16;95037.06;;;11.57;81.07
21900;BME280;11114;50.658;12.704;2022-11-04T08:58:43;95037.88;;;11.57;80.97
21900;BME280;11114;50.658;12.704;2022-11-04T09:01:10;95033.47;;;11.58;81.01
21900;BME280;11114;50.658;12.704;2022-11-04T09:03:39;95047.13;;;11.60;81.02
21900;BME280;11114;50.658;12.704;2022-11-04T09:06:09;95034.81;;;11.54;81.08
21900;BME280;11114;50.658;12.704;2022-11-04T09:08:37;95025.47;;;11.45;81.46
21900;BME280;11114;50.658;12.704;2022-11-04T09:11:06;95024.72;;;11.51;81.40
21900;BME280;11114;50.658;12.704;2022-11-04T09:13:34;95022.56;;;11.54;81.22
21900;BME280;11114;50.658;12.704;2022-11-04T09:16:06;95021.44;;;11.43;81.08
21900;BME280;11114;50.658;12.704;2022-11-04T09:18:33;95030.09;;;11.43;81.46
21900;BME280;11114;50.658;12.704;2022-11-04T09:21:01;95029.09;;;11.44;81.39
21900;BME280;11114;50.658;12.704;2022-11-04T09:23:28;95034.47;;;11.36;81.34
21900;BME280;11114;50.658;12.704;2022-11-04T09:25:55;95043.63;;;11.26;81.46
21900;BME280;11114;50.658;12.704;2022-11-04T09:28:24;95046.75;;;11.15;81.77
21900;BME280;11114;50.658;12.704;2022-11-04T09:30:51;95049.91;;;11.10;82.19
21900;BME280;11114;50.658;12.704;2022-11-04T09:33:18;95058.75;;;11.09;82.74
21900;BME280;11114;50.658;12.704;2022-11-04T09:35:54;95068.41;;;11.09;82.77
21900;BME280;11114;50.658;12.704;2022-11-04T09:38:23;95065.97;;;11.07;82.52
21900;BME280;11114;50.658;12.704;2022-11-04T09:40:50;95073.22;;;11.12;82.61
21900;BME280;11114;50.658;12.704;2022-11-04T09:44:10;95071.25;;;11.14;82.39
21900;BME280;11114;50.658;12.704;2022-11-04T09:46:12;95084.09;;;11.15;82.29
21900;BME280;11114;50.658;12.704;2022-11-04T09:48:54;95086.00;;;11.21;82.38
21900;BME280;11114;50.658;12.704;2022-11-04T09:51:24;95097.78;;;11.17;81.93
21900;BME280;11114;50.658;12.704;2022-11-04T09:54:21;95104.13;;;11.08;82.21
21900;BME280;11114;50.658;12.704;2022-11-04T09:56:50;95101.53;;;11.08;82.18
21900;BME280;11114;50.658;12.704;2022-11-04T09:59:31;95102.28;;;11.02;82.43
21900;BME280;11114;50.658;12.704;2022-11-04T10:07:44;95111.34;;;11.06;82.52
21900;BME280;11114;50.658;12.704;2022-11-04T10:13:12;95105.81;;;11.16;82.58
21900;BME280;11114;50.658;12.704;2022-11-04T10:18:59;95106.25;;;11.19;82.28
21900;BME280;11114;50.658;12.704;2022-11-04T10:24:50;95119.69;;;11.16;82.35
21900;BME280;11114;50.658;12.704;2022-11-04T10:27:25;95116.56;;;11.06;81.89
21900;BME280;11114;50.658;12.704;2022-11-04T10:30:20;95120.91;;;10.99;82.66
21900;BME280;11114;50.658;12.704;2022-11-04T10:35:37;95134.38;;;10.96;82.72
21900;BME280;11114;50.658;12.704;2022-11-04T10:38:23;95119.94;;;11.00;82.59
21900;BME280;11114;50.658;12.704;2022-11-04T10:40:53;95122.97;;;11.04;82.37
21900;BME280;11114;50.658;12.704;2022-11-04T10:43:35;95118.94;;;11.01;82.32
21900;BME280;11114;50.658;12.704;2022-11-04T10:51:55;95112.75;;;10.88;82.33
21900;BME280;11114;50.658;12.704;2022-11-04T10:54:24;95118.19;;;10.86;82.56
21900;BME280;11114;50.658;12.704;2022-11-04T10:56:55;95119.34;;;10.84;82.58
21900;BME280;11114;50.658;12.704;2022-11-04T10:59:27;95113.06;;;10.78;82.76
21900;BME280;11114;50.658;12.704;2022-11-04T11:01:58;95121.16;;;10.83;82.99
21900;BME280;11114;50.658;12.704;2022-11-04T11:04:31;95115.56;;;10.86;82.98
21900;BME280;11114;50.658;12.704;2022-11-04T11:07:06;95111.34;;;10.85;82.80
21900;BME280;11114;50.658;12.704;2022-11-04T11:09:35;95111.47;;;10.77;82.61
21900;BME280;11114;50.658;12.704;2022-11-04T11:14:58;95114.78;;;10.71;82.79
21900;BME280;11114;50.658;12.704;2022-11-04T11:17:35;95114.19;;;10.69;82.77
21900;BME280;11114;50.658;12.704;2022-11-04T11:22:44;95119.88;;;10.79;82.46
21900;BME280;11114;50.658;12.704;2022-11-04T11:25:20;95111.03;;;10.74;82.23
21900;BME280;11114;50.658;12.704;2022-11-04T11:30:32;95112.19;;;10.71;81.97
21900;BME280;11114;50.658;12.704;2022-11-04T11:33:03;95122.00;;;10.69;82.01
21900;BME280;11114;50.658;12.704;2022-11-04T11:35:38;95130.81;;;10.68;81.93
21900;BME280;11114;50.658;12.704;2022-11-04T11:38:21;95135.59;;;10.65;82.40
21900;BME280;11114;50.658;12.704;2022-11-04T11:40:49;95131.44;;;10.70;83.16
21900;BME280;11114;50.658;12.704;2022-11-04T11:43:44;95119.44;;;10.76;82.45
21900;BME280;11114;50.658;12.704;2022-11-04T11:46:12;95113.56;;;10.88;82.32
21900;BME280;11114;50.658;12.704;2022-11-04T11:51:06;95102.28;;;11.02;81.86
21900;BME280;11114;50.658;12.704;2022-11-04T11:53:33;95109.75;;;11.05;81.71
21900;BME280;11114;50.658;12.704;2022-11-04T11:56:33;95100.97;;;11.13;81.94
21900;BME280;11114;50.658;12.704;2022-11-04T11:59:33;95095.81;;;11.19;81.44
21900;BME280;11114;50.658;12.704;2022-11-04T12:02:46;95089.66;;;11.27;81.48
21900;BME280;11114;50.658;12.704;2022-11-04T12:05:16;95100.53;;;11.30;81.41
21900;BME280;11114;50.658;12.704;2022-11-04T12:11:34;95103.34;;;11.08;81.48
21900;BME280;11114;50.658;12.704;2022-11-04T12:14:12;95106.03;;;11.14;81.45
21900;BME280;11114;50.658;12.704;2022-11-04T12:19:51;95099.66;;;11.23;81.68
21900;BME280;11114;50.658;12.704;2022-11-04T12:25:21;95077.03;;;11.30;81.12
21900;BME280;11114;50.658;12.704;2022-11-04T12:27:56;95070.53;;;11.26;80.81
21900;BME280;11114;50.658;12.704;2022-11-04T12:30:25;95074.16;;;11.25;80.82
21900;BME280;11114;50.658;12.704;2022-11-04T12:33:23;95068.69;;;11.20;80.78
21900;BME280;11114;50.658;12.704;2022-11-04T12:36:00;95069.88;;;11.18;80.62
21900;BME280;11114;50.658;12.704;2022-11-04T12:44:41;95081.06;;;11.12;80.90
21900;BME280;11114;50.658;12.704;2022-11-04T12:55:59;95080.69;;;10.94;81.02
21900;BME280;11114;50.658;12.704;2022-11-04T13:01:38;95069.19;;;11.09;81.13
21900;BME280;11114;50.658;12.704;2022-11-04T13:04:13;95073.00;;;11.07;80.93
21900;BME280;11114;50.658;12.704;2022-11-04T13:06:55;95068.41;;;11.09;80.96
21900;BME280;11114;50.658;12.704;2022-11-04T13:09:57;95065.38;;;11.12;81.46
21900;BME280;11114;50.658;12.704;2022-11-04T13:12:38;95081.50;;;11.15;80.75
21900;BME280;11114;50.658;12.704;2022-11-04T13:15:18;95084.31;;;11.14;80.66
21900;BME280;11114;50.658;12.704;2022-11-04T13:17:53;95082.13;;;11.17;80.78
21900;BME280;11114;50.658;12.704;2022-11-04T13:22:57;95089.47;;;11.28;80.37
21900;BME280;11114;50.658;12.704;2022-11-04T13:25:44;95095.53;;;11.35;79.99
21900;BME280;11114;50.658;12.704;2022-11-04T13:28:13;95097.66;;;11.25;79.79
21900;BME280;11114;50.658;12.704;2022-11-04T13:39:53;95120.56;;;11.02;80.31
21900;BME280;11114;50.658;12.704;2022-11-04T13:42:29;95118.19;;;10.86;80.45
21900;BME280;11114;50.658;12.704;2022-11-04T13:45:19;95119.88;;;10.79;80.65
21900;BME280;11114;50.658;12.704;2022-11-04T13:47:47;95124.50;;;10.77;80.68
21900;BME280;11114;50.658;12.704;2022-11-04T13:50:32;95116.25;;;10.74;80.95
21900;BME280;11114;50.658;12.704;2022-11-04T13:53:01;95110.06;;;10.81;80.88
21900;BME280;11114;50.658;12.704;2022-11-04T13:55:28;95116.38;;;10.87;80.56
21900;BME280;11114;50.658;12.704;2022-11-04T13:58:03;95121.34;;;10.82;80.49
21900;BME280;11114;50.658;12.704;2022-11-04T14:00:32;95132.22;;;10.85;80.19
21900;BME280;11114;50.658;12.704;2022-11-04T14:03:00;95126.63;;;10.88;79.93
21900;BME280;11114;50.658;12.704;2022-11-04T14:08:25;95137.53;;;10.92;79.98
21900;BME280;11114;50.658;12.704;2022-11-04T14:18:41;95142.19;;;10.96;79.37
21900;BME280;11114;50.658;12.704;2022-11-04T14:21:13;95138.41;;;10.99;79.15
21900;BME280;11114;50.658;12.704;2022-11-04T14:23:51;95142.91;;;10.90;79.44
21900;BME280;11114;50.658;12.704;2022-11-04T14:26:40;95143.31;;;10.87;79.39
21900;BME280;11114;50.658;12.704;2022-11-04T14:29:16;95144.28;;;10.86;79.32
21900;BME280;11114;50.658;12.704;2022-11-04T14:31:48;95141.47;;;10.88;79.35
21900;BME280;11114;50.658;12.704;2022-11-04T14:34:33;95144.88;;;10.88;79.24
21900;BME280;11114;50.658;12.704;2022-11-04T14:39:41;95155.97;;;10.90;78.71
21900;BME280;11114;50.658;12.704;2022-11-04T14:42:11;95157.78;;;10.90;78.78
21900;BME280;11114;50.658;12.704;2022-11-04T14:44:42;95166.59;;;10.89;78.83
21900;BME280;11114;50.658;12.704;2022-11-04T14:47:21;95172.47;;;10.91;78.91
21900;BME280;11114;50.658;12.704;2022-11-04T14:49:59;95158.56;;;10.90;78.66
21900;BME280;11114;50.658;12.704;2022-11-04T14:52:34;95164.34;;;10.86;78.62
21900;BME280;11114;50.658;12.704;2022-11-04T14:55:11;95164.97;;;10.88;78.71
21900;BME280;11114;50.658;12.704;2022-11-04T14:57:44;95174.09;;;10.92;78.78
21900;BME280;11114;50.658;12.704;2022-11-04T15:03:13;95183.03;;;11.04;78.80
21900;BME280;11114;50.658;12.704;2022-11-04T15:06:03;95192.13;;;11.08;78.41
21900;BME280;11114;50.658;12.704;2022-11-04T15:11:17;95189.69;;;11.06;77.70
21900;BME280;11114;50.658;12.704;2022-11-04T15:14:23;95188.81;;;10.99;78.02
21900;BME280;11114;50.658;12.704;2022-11-04T15:16:55;95190.00;;;10.97;77.96
21900;BME280;11114;50.658;12.704;2022-11-04T15:19:30;95193.03;;;11.00;78.01
21900;BME280;11114;50.658;12.704;2022-11-04T15:22:00;95200.88;;;11.00;77.65
21900;BME280;11114;50.658;12.704;2022-11-04T15:24:28;95204.38;;;10.93;77.59
21900;BME280;11114;50.658;12.704;2022-11-04T15:27:01;95204.34;;;10.86;77.99